sensor_id;sensor_type;location;lat;lon;timestamp;P1;durP1;ratioP1;P2;durP2;ratioP2
13720;SDS011;6932;51.438;5.470;2023-07-13T00:00:28;3.23;;;1.40;;
13720;SDS011;6932;51.438;5.470;2023-07-13T00:02:55;3.93;;;1.50;;
13720;SDS011;6932;51.438;5.470;2023-07-13T00:05:22;2.87;;;1.30;;
13720;SDS011;6932;51.438;5.470;2023-07-13T00:07:48;3.27;;;1.33;;
13720;SDS011;6932;51.438;5.470;2023-07-13T00:10:16;3.03;;;1.10;;
13720;SDS011;6932;51.438;5.470;2023-07-13T00:12:42;4.20;;;1.30;;
13720;SDS011;6932;51.438;5.470;2023-07-13T00:15:13;2.33;;;1.30;;
13720;SDS011;6932;51.438;5.470;2023-07-13T00:17:48;4.30;;;1.37;;
13720;SDS011;6932;51.438;5.470;2023-07-13T00:20:19;4.63;;;1.37;;
13720;SDS011;6932;51.438;5.470;2023-07-13T00:22:48;3.00;;;1.37;;
13720;SDS011;6932;51.438;5.470;2023-07-13T00:25:14;2.10;;;1.20;;
13720;SDS011;6932;51.438;5.470;2023-07-13T00:27:42;4.40;;;1.40;;
13720;SDS011;6932;51.438;5.470;2023-07-13T00:30:08;3.37;;;1.53;;
13720;SDS011;6932;51.438;5.470;2023-07-13T00:32:36;2.53;;;1.37;;
13720;SDS011;6932;51.438;5.470;2023-07-13T00:35:02;3.30;;;1.43;;
13720;SDS011;6932;51.438;5.470;2023-07-13T00:37:29;5.23;;;1.50;;
13720;SDS011;6932;51.438;5.470;2023-07-13T00:39:56;2.30;;;1.33;;
13720;SDS011;6932;51.438;5.470;2023-07-13T00:42:21;5.20;;;1.60;;
13720;SDS011;6932;51.438;5.470;2023-07-13T00:47:51;4.67;;;1.63;;
13720;SDS011;6932;51.438;5.470;2023-07-13T00:50:19;3.97;;;1.50;;
13720;SDS011;6932;51.438;5.470;2023-07-13T00:52:49;3.83;;;1.40;;
13720;SDS011;6932;51.438;5.470;2023-07-13T00:55:19;4.70;;;1.50;;
13720;SDS011;6932;51.438;5.470;2023-07-13T00:57:47;3.37;;;1.57;;
13720;SDS011;6932;51.438;5.470;2023-07-13T01:00:13;3.37;;;1.57;;
13720;SDS011;6932;51.438;5.470;2023-07-13T01:02:40;5.30;;;1.50;;
13720;SDS011;6932;51.438;5.470;2023-07-13T01:05:14;3.73;;;1.43;;
13720;SDS011;6932;51.438;5.470;2023-07-13T01:07:44;5.07;;;1.63;;
13720;SDS011;6932;51.438;5.470;2023-07-13T01:10:13;3.83;;;1.50;;
13720;SDS011;6932;51.438;5.470;2023-07-13T01:12:39;4.33;;;1.50;;
13720;SDS011;6932;51.438;5.470;2023-07-13T01:15:06;4.10;;;1.57;;
13720;SDS011;6932;51.438;5.470;2023-07-13T01:18:08;5.97;;;1.50;;
13720;SDS011;6932;51.438;5.470;2023-07-13T01:23:26;4.23;;;1.50;;
13720;SDS011;6932;51.438;5.470;2023-07-13T01:25:54;4.77;;;1.77;;
13720;SDS011;6932;51.438;5.470;2023-07-13T01:28:22;2.40;;;1.30;;
13720;SDS011;6932;51.438;5.470;2023-07-13T01:30:52;4.97;;;1.57;;
13720;SDS011;6932;51.438;5.470;2023-07-13T01:33:20;2.90;;;1.27;;
13720;SDS011;6932;51.438;5.470;2023-07-13T01:35:46;3.70;;;1.60;;
13720;SDS011;6932;51.438;5.470;2023-07-13T01:38:14;7.00;;;1.80;;
13720;SDS011;6932;51.438;5.470;2023-07-13T01:40:43;3.63;;;1.53;;
13720;SDS011;6932;51.438;5.470;2023-07-13T01:43:09;3.30;;;1.83;;
13720;SDS011;6932;51.438;5.470;2023-07-13T01:45:35;4.03;;;1.50;;
13720;SDS011;6932;51.438;5.470;2023-07-13T01:48:02;2.97;;;1.40;;
13720;SDS011;6932;51.438;5.470;2023-07-13T01:50:28;3.53;;;1.67;;
13720;SDS011;6932;51.438;5.470;2023-07-13T01:52:54;5.10;;;1.80;;
13720;SDS011;6932;51.438;5.470;2023-07-13T01:55:20;4.53;;;1.53;;
13720;SDS011;6932;51.438;5.470;2023-07-13T01:57:47;3.13;;;1.50;;
13720;SDS011;6932;51.438;5.470;2023-07-13T02:00:14;5.50;;;1.43;;
13720;SDS011;6932;51.438;5.470;2023-07-13T02:02:40;2.93;;;1.50;;
13720;SDS011;6932;51.438;5.470;2023-07-13T02:05:06;4.30;;;1.70;;
13720;SDS011;6932;51.438;5.470;2023-07-13T02:07:32;2.67;;;1.30;;
13720;SDS011;6932;51.438;5.470;2023-07-13T02:09:58;3.13;;;1.33;;
13720;SDS011;6932;51.438;5.470;2023-07-13T02:12:24;3.73;;;1.77;;
13720;SDS011;6932;51.438;5.470;2023-07-13T02:14:49;3.33;;;1.70;;
13720;SDS011;6932;51.438;5.470;2023-07-13T02:17:15;3.23;;;1.50;;
13720;SDS011;6932;51.438;5.470;2023-07-13T02:19:41;4.53;;;2.23;;
13720;SDS011;6932;51.438;5.470;2023-07-13T02:22:07;7.40;;;1.87;;
13720;SDS011;6932;51.438;5.470;2023-07-13T02:24:32;4.03;;;1.53;;
13720;SDS011;6932;51.438;5.470;2023-07-13T02:26:58;4.83;;;1.70;;
13720;SDS011;6932;51.438;5.470;2023-07-13T02:29:24;4.00;;;1.70;;
13720;SDS011;6932;51.438;5.470;2023-07-13T02:31:50;5.67;;;1.67;;
13720;SDS011;6932;51.438;5.470;2023-07-13T02:34:16;5.00;;;2.03;;
13720;SDS011;6932;51.438;5.470;2023-07-13T02:36:41;5.83;;;1.97;;
13720;SDS011;6932;51.438;5.470;2023-07-13T02:39:07;4.10;;;1.60;;
13720;SDS011;6932;51.438;5.470;2023-07-13T02:41:36;5.07;;;1.53;;
13720;SDS011;6932;51.438;5.470;2023-07-13T02:44:02;3.43;;;1.60;;
13720;SDS011;6932;51.438;5.470;2023-07-13T02:46:31;4.43;;;1.67;;
13720;SDS011;6932;51.438;5.470;2023-07-13T02:48:58;5.33;;;1.80;;
13720;SDS011;6932;51.438;5.470;2023-07-13T02:51:25;4.97;;;1.53;;
13720;SDS011;6932;51.438;5.470;2023-07-13T02:53:51;5.53;;;1.77;;
13720;SDS011;6932;51.438;5.470;2023-07-13T02:56:19;5.33;;;1.70;;
13720;SDS011;6932;51.438;5.470;2023-07-13T02:58:50;4.17;;;1.60;;
13720;SDS011;6932;51.438;5.470;2023-07-13T03:01:16;6.30;;;1.83;;
13720;SDS011;6932;51.438;5.470;2023-07-13T03:03:44;3.77;;;1.70;;
13720;SDS011;6932;51.438;5.470;2023-07-13T03:06:11;2.73;;;1.60;;
13720;SDS011;6932;51.438;5.470;2023-07-13T03:08:37;5.80;;;1.73;;
13720;SDS011;6932;51.438;5.470;2023-07-13T03:11:07;7.03;;;2.33;;
13720;SDS011;6932;51.438;5.470;2023-07-13T03:13:40;4.90;;;1.80;;
13720;SDS011;6932;51.438;5.470;2023-07-13T03:16:07;4.80;;;1.70;;
13720;SDS011;6932;51.438;5.470;2023-07-13T03:18:35;3.53;;;1.80;;
13720;SDS011;6932;51.438;5.470;2023-07-13T03:21:02;7.03;;;1.80;;
13720;SDS011;6932;51.438;5.470;2023-07-13T03:23:29;4.07;;;1.73;;
13720;SDS011;6932;51.438;5.470;2023-07-13T03:26:05;3.90;;;1.53;;
13720;SDS011;6932;51.438;5.470;2023-07-13T03:28:38;4.50;;;1.73;;
13720;SDS011;6932;51.438;5.470;2023-07-13T03:31:06;4.00;;;1.73;;
13720;SDS011;6932;51.438;5.470;2023-07-13T03:33:38;5.27;;;1.70;;
13720;SDS011;6932;51.438;5.470;2023-07-13T03:36:04;4.33;;;1.70;;
13720;SDS011;6932;51.438;5.470;2023-07-13T03:38:33;5.03;;;1.80;;
13720;SDS011;6932;51.438;5.470;2023-07-13T03:40:59;4.40;;;1.80;;
13720;SDS011;6932;51.438;5.470;2023-07-13T03:43:25;2.97;;;1.63;;
13720;SDS011;6932;51.438;5.470;2023-07-13T03:45:51;4.37;;;2.00;;
13720;SDS011;6932;51.438;5.470;2023-07-13T03:48:17;5.33;;;2.13;;
13720;SDS011;6932;51.438;5.470;2023-07-13T03:50:43;5.00;;;2.03;;
13720;SDS011;6932;51.438;5.470;2023-07-13T03:53:09;3.47;;;1.63;;
13720;SDS011;6932;51.438;5.470;2023-07-13T03:55:35;5.07;;;1.93;;
13720;SDS011;6932;51.438;5.470;2023-07-13T03:58:25;4.77;;;2.07;;
13720;SDS011;6932;51.438;5.470;2023-07-13T04:01:03;5.40;;;2.10;;
13720;SDS011;6932;51.438;5.470;2023-07-13T04:03:31;3.83;;;2.03;;
13720;SDS011;6932;51.438;5.470;2023-07-13T04:06:01;5.33;;;1.77;;
13720;SDS011;6932;51.438;5.470;2023-07-13T04:08:31;5.93;;;2.00;;
13720;SDS011;6932;51.438;5.470;2023-07-13T04:11:00;5.50;;;2.10;;
13720;SDS011;6932;51.438;5.470;2023-07-13T04:13:27;4.97;;;2.13;;
13720;SDS011;6932;51.438;5.470;2023-07-13T04:15:53;5.70;;;2.27;;
13720;SDS011;6932;51.438;5.470;2023-07-13T04:18:19;4.67;;;2.10;;
13720;SDS011;6932;51.438;5.470;2023-07-13T04:20:46;8.07;;;2.70;;
13720;SDS011;6932;51.438;5.470;2023-07-13T04:23:14;5.97;;;2.30;;
13720;SDS011;6932;51.438;5.470;2023-07-13T04:25:44;5.80;;;2.30;;
13720;SDS011;6932;51.438;5.470;2023-07-13T04:28:15;6.00;;;2.30;;
13720;SDS011;6932;51.438;5.470;2023-07-13T04:30:42;6.33;;;2.50;;
13720;SDS011;6932;51.438;5.470;2023-07-13T04:33:08;7.33;;;2.80;;
13720;SDS011;6932;51.438;5.470;2023-07-13T04:35:35;6.13;;;2.47;;
13720;SDS011;6932;51.438;5.470;2023-07-13T04:38:01;8.23;;;2.60;;
13720;SDS011;6932;51.438;5.470;2023-07-13T04:40:27;6.57;;;2.70;;
13720;SDS011;6932;51.438;5.470;2023-07-13T04:42:54;7.63;;;2.90;;
13720;SDS011;6932;51.438;5.470;2023-07-13T04:45:21;8.27;;;3.33;;
13720;SDS011;6932;51.438;5.470;2023-07-13T04:47:49;6.30;;;3.17;;
13720;SDS011;6932;51.438;5.470;2023-07-13T04:50:15;7.40;;;3.20;;
13720;SDS011;6932;51.438;5.470;2023-07-13T04:52:45;8.87;;;3.47;;
13720;SDS011;6932;51.438;5.470;2023-07-13T04:55:11;9.70;;;3.43;;
13720;SDS011;6932;51.438;5.470;2023-07-13T04:57:37;10.93;;;3.40;;
13720;SDS011;6932;51.438;5.470;2023-07-13T05:00:03;7.77;;;3.50;;
13720;SDS011;6932;51.438;5.470;2023-07-13T05:02:30;11.60;;;4.10;;
13720;SDS011;6932;51.438;5.470;2023-07-13T05:04:56;10.17;;;3.70;;
13720;SDS011;6932;51.438;5.470;2023-07-13T05:07:22;9.90;;;3.63;;
13720;SDS011;6932;51.438;5.470;2023-07-13T05:09:48;10.07;;;3.93;;
13720;SDS011;6932;51.438;5.470;2023-07-13T05:12:14;10.93;;;4.23;;
13720;SDS011;6932;51.438;5.470;2023-07-13T05:14:39;8.67;;;4.00;;
13720;SDS011;6932;51.438;5.470;2023-07-13T05:17:05;8.73;;;4.07;;
13720;SDS011;6932;51.438;5.470;2023-07-13T05:19:31;11.80;;;4.57;;
13720;SDS011;6932;51.438;5.470;2023-07-13T05:21:57;10.70;;;4.03;;
13720;SDS011;6932;51.438;5.470;2023-07-13T05:24:23;10.50;;;3.87;;
13720;SDS011;6932;51.438;5.470;2023-07-13T05:26:49;10.50;;;3.80;;
13720;SDS011;6932;51.438;5.470;2023-07-13T05:29:15;9.00;;;3.80;;
13720;SDS011;6932;51.438;5.470;2023-07-13T05:31:40;10.20;;;4.07;;
13720;SDS011;6932;51.438;5.470;2023-07-13T05:34:06;9.93;;;3.90;;
13720;SDS011;6932;51.438;5.470;2023-07-13T05:36:32;9.73;;;3.60;;
13720;SDS011;6932;51.438;5.470;2023-07-13T05:38:58;10.60;;;4.27;;
13720;SDS011;6932;51.438;5.470;2023-07-13T05:41:23;10.23;;;3.53;;
13720;SDS011;6932;51.438;5.470;2023-07-13T05:43:49;11.43;;;3.97;;
13720;SDS011;6932;51.438;5.470;2023-07-13T05:46:15;9.73;;;3.90;;
13720;SDS011;6932;51.438;5.470;2023-07-13T05:48:40;9.53;;;3.87;;
13720;SDS011;6932;51.438;5.470;2023-07-13T05:51:07;9.60;;;3.67;;
13720;SDS011;6932;51.438;5.470;2023-07-13T05:53:33;9.97;;;3.60;;
13720;SDS011;6932;51.438;5.470;2023-07-13T05:55:59;10.30;;;3.63;;
13720;SDS011;6932;51.438;5.470;2023-07-13T05:58:25;7.50;;;3.70;;
13720;SDS011;6932;51.438;5.470;2023-07-13T06:00:58;9.77;;;3.77;;
13720;SDS011;6932;51.438;5.470;2023-07-13T06:03:30;10.77;;;3.80;;
13720;SDS011;6932;51.438;5.470;2023-07-13T06:05:56;9.70;;;4.07;;
13720;SDS011;6932;51.438;5.470;2023-07-13T06:08:22;10.57;;;4.40;;
13720;SDS011;6932;51.438;5.470;2023-07-13T06:10:48;14.30;;;4.50;;
13720;SDS011;6932;51.438;5.470;2023-07-13T06:13:14;11.10;;;4.53;;
13720;SDS011;6932;51.438;5.470;2023-07-13T06:15:39;8.40;;;4.13;;
13720;SDS011;6932;51.438;5.470;2023-07-13T06:18:05;10.00;;;4.47;;
13720;SDS011;6932;51.438;5.470;2023-07-13T06:20:33;10.73;;;4.40;;
13720;SDS011;6932;51.438;5.470;2023-07-13T06:22:59;10.07;;;4.87;;
13720;SDS011;6932;51.438;5.470;2023-07-13T06:25:26;8.83;;;4.07;;
13720;SDS011;6932;51.438;5.470;2023-07-13T06:27:52;8.57;;;4.43;;
13720;SDS011;6932;51.438;5.470;2023-07-13T06:30:18;12.10;;;4.97;;
13720;SDS011;6932;51.438;5.470;2023-07-13T06:32:44;9.30;;;4.80;;
13720;SDS011;6932;51.438;5.470;2023-07-13T06:35:09;10.20;;;4.43;;
13720;SDS011;6932;51.438;5.470;2023-07-13T06:37:37;10.53;;;4.20;;
13720;SDS011;6932;51.438;5.470;2023-07-13T06:40:03;11.80;;;4.57;;
13720;SDS011;6932;51.438;5.470;2023-07-13T06:42:30;10.87;;;4.60;;
13720;SDS011;6932;51.438;5.470;2023-07-13T06:44:55;11.97;;;4.70;;
13720;SDS011;6932;51.438;5.470;2023-07-13T06:47:21;10.33;;;4.57;;
13720;SDS011;6932;51.438;5.470;2023-07-13T06:49:47;9.67;;;4.37;;
13720;SDS011;6932;51.438;5.470;2023-07-13T06:52:12;12.27;;;4.47;;
13720;SDS011;6932;51.438;5.470;2023-07-13T06:54:38;10.03;;;4.40;;
13720;SDS011;6932;51.438;5.470;2023-07-13T06:57:04;11.10;;;4.40;;
13720;SDS011;6932;51.438;5.470;2023-07-13T06:59:30;10.93;;;4.47;;
13720;SDS011;6932;51.438;5.470;2023-07-13T07:01:56;8.40;;;4.13;;
13720;SDS011;6932;51.438;5.470;2023-07-13T07:04:22;10.17;;;4.53;;
13720;SDS011;6932;51.438;5.470;2023-07-13T07:06:47;11.80;;;4.63;;
13720;SDS011;6932;51.438;5.470;2023-07-13T07:09:13;9.53;;;4.50;;
13720;SDS011;6932;51.438;5.470;2023-07-13T07:11:41;10.43;;;4.17;;
13720;SDS011;6932;51.438;5.470;2023-07-13T07:14:07;10.37;;;4.00;;
13720;SDS011;6932;51.438;5.470;2023-07-13T07:16:33;9.47;;;4.20;;
13720;SDS011;6932;51.438;5.470;2023-07-13T07:18:59;10.33;;;4.67;;
13720;SDS011;6932;51.438;5.470;2023-07-13T07:21:25;10.63;;;4.37;;
13720;SDS011;6932;51.438;5.470;2023-07-13T07:23:52;9.27;;;4.07;;
13720;SDS011;6932;51.438;5.470;2023-07-13T07:26:18;9.10;;;3.93;;
13720;SDS011;6932;51.438;5.470;2023-07-13T07:28:44;9.27;;;4.10;;
13720;SDS011;6932;51.438;5.470;2023-07-13T07:31:10;8.33;;;4.03;;
13720;SDS011;6932;51.438;5.470;2023-07-13T07:33:37;11.23;;;4.53;;
13720;SDS011;6932;51.438;5.470;2023-07-13T07:36:02;8.53;;;3.77;;
13720;SDS011;6932;51.438;5.470;2023-07-13T07:38:29;9.13;;;3.90;;
13720;SDS011;6932;51.438;5.470;2023-07-13T07:40:54;7.27;;;3.77;;
13720;SDS011;6932;51.438;5.470;2023-07-13T07:43:20;9.83;;;4.00;;
13720;SDS011;6932;51.438;5.470;2023-07-13T07:45:46;12.00;;;4.20;;
13720;SDS011;6932;51.438;5.470;2023-07-13T07:48:12;8.33;;;4.07;;
13720;SDS011;6932;51.438;5.470;2023-07-13T07:50:38;8.57;;;3.57;;
13720;SDS011;6932;51.438;5.470;2023-07-13T07:53:05;9.40;;;4.00;;
13720;SDS011;6932;51.438;5.470;2023-07-13T07:55:33;7.87;;;3.30;;
13720;SDS011;6932;51.438;5.470;2023-07-13T07:58:00;8.90;;;3.37;;
13720;SDS011;6932;51.438;5.470;2023-07-13T08:00:26;10.00;;;3.70;;
13720;SDS011;6932;51.438;5.470;2023-07-13T08:02:55;7.17;;;3.70;;
13720;SDS011;6932;51.438;5.470;2023-07-13T08:05:21;6.70;;;2.97;;
13720;SDS011;6932;51.438;5.470;2023-07-13T08:07:46;7.37;;;3.37;;
13720;SDS011;6932;51.438;5.470;2023-07-13T08:10:12;7.03;;;3.00;;
13720;SDS011;6932;51.438;5.470;2023-07-13T08:12:38;6.33;;;2.97;;
13720;SDS011;6932;51.438;5.470;2023-07-13T08:15:06;7.00;;;3.20;;
13720;SDS011;6932;51.438;5.470;2023-07-13T08:17:36;6.63;;;3.20;;
13720;SDS011;6932;51.438;5.470;2023-07-13T08:20:02;7.57;;;3.00;;
13720;SDS011;6932;51.438;5.470;2023-07-13T08:22:29;6.93;;;3.00;;
13720;SDS011;6932;51.438;5.470;2023-07-13T08:24:55;8.23;;;2.73;;
13720;SDS011;6932;51.438;5.470;2023-07-13T08:27:24;9.00;;;3.30;;
13720;SDS011;6932;51.438;5.470;2023-07-13T08:29:51;6.30;;;2.83;;
13720;SDS011;6932;51.438;5.470;2023-07-13T08:32:18;8.30;;;2.80;;
13720;SDS011;6932;51.438;5.470;2023-07-13T08:34:46;8.03;;;2.63;;
13720;SDS011;6932;51.438;5.470;2023-07-13T08:37:13;7.47;;;3.00;;
13720;SDS011;6932;51.438;5.470;2023-07-13T08:39:40;6.97;;;2.73;;
13720;SDS011;6932;51.438;5.470;2023-07-13T08:42:07;5.10;;;2.57;;
13720;SDS011;6932;51.438;5.470;2023-07-13T08:44:40;6.33;;;2.83;;
13720;SDS011;6932;51.438;5.470;2023-07-13T08:47:19;5.70;;;2.70;;
13720;SDS011;6932;51.438;5.470;2023-07-13T08:49:48;8.10;;;2.63;;
13720;SDS011;6932;51.438;5.470;2023-07-13T08:55:05;6.00;;;2.57;;
13720;SDS011;6932;51.438;5.470;2023-07-13T08:58:11;4.53;;;2.40;;
13720;SDS011;6932;51.438;5.470;2023-07-13T09:03:40;5.10;;;2.70;;
13720;SDS011;6932;51.438;5.470;2023-07-13T09:06:27;4.60;;;2.40;;
13720;SDS011;6932;51.438;5.470;2023-07-13T09:09:14;5.30;;;2.33;;
13720;SDS011;6932;51.438;5.470;2023-07-13T09:14:50;5.88;;;2.38;;
13720;SDS011;6932;51.438;5.470;2023-07-13T09:17:22;4.80;;;2.40;;
13720;SDS011;6932;51.438;5.470;2023-07-13T09:19:59;5.85;;;2.20;;
13720;SDS011;6932;51.438;5.470;2023-07-13T09:23:01;3.55;;;2.20;;
13720;SDS011;6932;51.438;5.470;2023-07-13T09:25:35;3.40;;;2.00;;
13720;SDS011;6932;51.438;5.470;2023-07-13T09:28:14;5.30;;;2.50;;
13720;SDS011;6932;51.438;5.470;2023-07-13T09:30:58;4.40;;;1.90;;
13720;SDS011;6932;51.438;5.470;2023-07-13T09:33:29;7.18;;;2.30;;
13720;SDS011;6932;51.438;5.470;2023-07-13T09:35:57;6.30;;;2.30;;
13720;SDS011;6932;51.438;5.470;2023-07-13T09:38:24;4.35;;;2.28;;
13720;SDS011;6932;51.438;5.470;2023-07-13T09:40:59;4.78;;;2.13;;
13720;SDS011;6932;51.438;5.470;2023-07-13T09:44:01;7.50;;;2.47;;
13720;SDS011;6932;51.438;5.470;2023-07-13T09:46:45;6.03;;;2.40;;
13720;SDS011;6932;51.438;5.470;2023-07-13T09:49:24;6.35;;;2.30;;
13720;SDS011;6932;51.438;5.470;2023-07-13T09:52:05;4.70;;;2.50;;
13720;SDS011;6932;51.438;5.470;2023-07-13T09:54:36;6.28;;;2.40;;
13720;SDS011;6932;51.438;5.470;2023-07-13T09:57:03;6.20;;;2.28;;
13720;SDS011;6932;51.438;5.470;2023-07-13T09:59:40;6.25;;;2.30;;
13720;SDS011;6932;51.438;5.470;2023-07-13T10:05:04;6.13;;;2.15;;
13720;SDS011;6932;51.438;5.470;2023-07-13T10:07:38;7.25;;;2.03;;
13720;SDS011;6932;51.438;5.470;2023-07-13T10:10:16;4.38;;;2.22;;
13720;SDS011;6932;51.438;5.470;2023-07-13T10:12:46;4.65;;;2.08;;
13720;SDS011;6932;51.438;5.470;2023-07-13T10:15:16;5.15;;;2.10;;
13720;SDS011;6932;51.438;5.470;2023-07-13T10:17:49;3.35;;;2.17;;
13720;SDS011;6932;51.438;5.470;2023-07-13T10:20:17;5.38;;;1.95;;
13720;SDS011;6932;51.438;5.470;2023-07-13T10:22:54;3.50;;;1.90;;
13720;SDS011;6932;51.438;5.470;2023-07-13T10:25:27;5.82;;;2.00;;
13720;SDS011;6932;51.438;5.470;2023-07-13T10:28:42;5.03;;;1.70;;
13720;SDS011;6932;51.438;5.470;2023-07-13T10:30:56;4.20;;;2.00;;
13720;SDS011;6932;51.438;5.470;2023-07-13T10:33:25;4.25;;;1.77;;
13720;SDS011;6932;51.438;5.470;2023-07-13T10:35:54;5.18;;;2.33;;
13720;SDS011;6932;51.438;5.470;2023-07-13T10:38:37;4.38;;;1.80;;
13720;SDS011;6932;51.438;5.470;2023-07-13T10:41:11;4.57;;;1.85;;
13720;SDS011;6932;51.438;5.470;2023-07-13T10:43:43;5.10;;;1.90;;
13720;SDS011;6932;51.438;5.470;2023-07-13T10:46:15;3.72;;;1.90;;
13720;SDS011;6932;51.438;5.470;2023-07-13T10:48:46;4.93;;;1.70;;
13720;SDS011;6932;51.438;5.470;2023-07-13T10:51:19;4.22;;;1.70;;
13720;SDS011;6932;51.438;5.470;2023-07-13T10:53:46;4.38;;;1.77;;
13720;SDS011;6932;51.438;5.470;2023-07-13T10:56:32;3.75;;;1.88;;
13720;SDS011;6932;51.438;5.470;2023-07-13T10:59:02;4.75;;;1.77;;
13720;SDS011;6932;51.438;5.470;2023-07-13T11:01:54;4.88;;;1.80;;
13720;SDS011;6932;51.438;5.470;2023-07-13T11:04:25;2.97;;;1.75;;
13720;SDS011;6932;51.438;5.470;2023-07-13T11:06:58;6.63;;;2.08;;
13720;SDS011;6932;51.438;5.470;2023-07-13T11:09:40;4.88;;;1.70;;
13720;SDS011;6932;51.438;5.470;2023-07-13T11:17:24;5.53;;;2.13;;
13720;SDS011;6932;51.438;5.470;2023-07-13T11:20:19;5.88;;;1.98;;
13720;SDS011;6932;51.438;5.470;2023-07-13T11:25:36;5.50;;;2.08;;
13720;SDS011;6932;51.438;5.470;2023-07-13T11:30:40;5.28;;;2.22;;
13720;SDS011;6932;51.438;5.470;2023-07-13T11:36:16;3.90;;;2.05;;
13720;SDS011;6932;51.438;5.470;2023-07-13T11:41:30;4.20;;;2.03;;
13720;SDS011;6932;51.438;5.470;2023-07-13T11:44:07;9.40;;;2.13;;
13720;SDS011;6932;51.438;5.470;2023-07-13T11:46:49;3.92;;;1.98;;
13720;SDS011;6932;51.438;5.470;2023-07-13T11:49:21;3.45;;;1.70;;
13720;SDS011;6932;51.438;5.470;2023-07-13T11:51:50;5.80;;;1.80;;
13720;SDS011;6932;51.438;5.470;2023-07-13T11:54:32;5.80;;;2.00;;
13720;SDS011;6932;51.438;5.470;2023-07-13T11:59:56;3.83;;;1.65;;
13720;SDS011;6932;51.438;5.470;2023-07-13T12:02:34;3.83;;;2.10;;
13720;SDS011;6932;51.438;5.470;2023-07-13T12:05:05;3.22;;;1.90;;
13720;SDS011;6932;51.438;5.470;2023-07-13T12:07:37;4.00;;;2.00;;
13720;SDS011;6932;51.438;5.470;2023-07-13T12:12:48;4.95;;;2.10;;
13720;SDS011;6932;51.438;5.470;2023-07-13T12:15:19;4.05;;;2.08;;
13720;SDS011;6932;51.438;5.470;2023-07-13T12:17:47;3.50;;;1.98;;
13720;SDS011;6932;51.438;5.470;2023-07-13T12:20:23;5.13;;;2.15;;
13720;SDS011;6932;51.438;5.470;2023-07-13T12:22:54;4.97;;;2.30;;
13720;SDS011;6932;51.438;5.470;2023-07-13T12:25:22;3.80;;;2.03;;
13720;SDS011;6932;51.438;5.470;2023-07-13T12:27:50;4.15;;;2.10;;
13720;SDS011;6932;51.438;5.470;2023-07-13T12:33:05;3.17;;;2.00;;
13720;SDS011;6932;51.438;5.470;2023-07-13T12:35:54;3.47;;;2.00;;
13720;SDS011;6932;51.438;5.470;2023-07-13T12:38:24;3.17;;;2.10;;
13720;SDS011;6932;51.438;5.470;2023-07-13T12:40:51;4.55;;;2.30;;
13720;SDS011;6932;51.438;5.470;2023-07-13T12:43:19;3.00;;;2.03;;
13720;SDS011;6932;51.438;5.470;2023-07-13T12:46:04;5.60;;;2.38;;
13720;SDS011;6932;51.438;5.470;2023-07-13T12:48:43;3.58;;;2.00;;
13720;SDS011;6932;51.438;5.470;2023-07-13T12:51:11;4.18;;;1.90;;
13720;SDS011;6932;51.438;5.470;2023-07-13T12:53:41;3.50;;;1.83;;
13720;SDS011;6932;51.438;5.470;2023-07-13T12:56:21;2.83;;;1.73;;
13720;SDS011;6932;51.438;5.470;2023-07-13T12:58:57;3.67;;;1.60;;
13720;SDS011;6932;51.438;5.470;2023-07-13T13:01:28;3.85;;;1.80;;
13720;SDS011;6932;51.438;5.470;2023-07-13T13:04:00;5.03;;;1.73;;
13720;SDS011;6932;51.438;5.470;2023-07-13T13:06:38;3.17;;;1.70;;
13720;SDS011;6932;51.438;5.470;2023-07-13T13:09:09;3.92;;;1.77;;
13720;SDS011;6932;51.438;5.470;2023-07-13T13:11:39;3.88;;;1.60;;
13720;SDS011;6932;51.438;5.470;2023-07-13T13:14:06;3.50;;;1.92;;
13720;SDS011;6932;51.438;5.470;2023-07-13T13:16:34;4.97;;;1.80;;
13720;SDS011;6932;51.438;5.470;2023-07-13T13:19:18;4.75;;;1.70;;
13720;SDS011;6932;51.438;5.470;2023-07-13T13:21:51;4.15;;;2.15;;
13720;SDS011;6932;51.438;5.470;2023-07-13T13:24:20;3.47;;;1.90;;
13720;SDS011;6932;51.438;5.470;2023-07-13T13:26:51;4.00;;;2.10;;
13720;SDS011;6932;51.438;5.470;2023-07-13T13:29:19;5.45;;;2.42;;
13720;SDS011;6932;51.438;5.470;2023-07-13T13:31:52;3.97;;;2.27;;
13720;SDS011;6932;51.438;5.470;2023-07-13T13:34:20;5.47;;;2.33;;
13720;SDS011;6932;51.438;5.470;2023-07-13T13:36:49;5.60;;;2.50;;
13720;SDS011;6932;51.438;5.470;2023-07-13T13:39:34;3.97;;;2.50;;
13720;SDS011;6932;51.438;5.470;2023-07-13T13:42:02;4.37;;;2.50;;
13720;SDS011;6932;51.438;5.470;2023-07-13T13:44:28;5.00;;;2.43;;
13720;SDS011;6932;51.438;5.470;2023-07-13T13:46:54;4.07;;;2.30;;
13720;SDS011;6932;51.438;5.470;2023-07-13T13:49:22;3.70;;;2.20;;
13720;SDS011;6932;51.438;5.470;2023-07-13T13:51:50;3.93;;;2.50;;
13720;SDS011;6932;51.438;5.470;2023-07-13T13:54:18;4.43;;;2.50;;
13720;SDS011;6932;51.438;5.470;2023-07-13T13:56:46;3.93;;;2.40;;
13720;SDS011;6932;51.438;5.470;2023-07-13T13:59:15;5.50;;;2.17;;
13720;SDS011;6932;51.438;5.470;2023-07-13T14:01:42;4.00;;;2.00;;
13720;SDS011;6932;51.438;5.470;2023-07-13T14:04:14;3.50;;;2.13;;
13720;SDS011;6932;51.438;5.470;2023-07-13T14:06:45;3.20;;;2.10;;
13720;SDS011;6932;51.438;5.470;2023-07-13T14:09:12;3.57;;;2.37;;
13720;SDS011;6932;51.438;5.470;2023-07-13T14:11:42;3.60;;;2.27;;
13720;SDS011;6932;51.438;5.470;2023-07-13T14:14:16;4.50;;;1.97;;
13720;SDS011;6932;51.438;5.470;2023-07-13T14:16:46;3.30;;;1.90;;
13720;SDS011;6932;51.438;5.470;2023-07-13T14:19:18;2.63;;;1.60;;
13720;SDS011;6932;51.438;5.470;2023-07-13T14:21:44;3.00;;;1.70;;
13720;SDS011;6932;51.438;5.470;2023-07-13T14:24:12;2.87;;;1.60;;
13720;SDS011;6932;51.438;5.470;2023-07-13T14:26:39;2.90;;;1.53;;
13720;SDS011;6932;51.438;5.470;2023-07-13T14:29:13;2.73;;;1.70;;
13720;SDS011;6932;51.438;5.470;2023-07-13T14:31:42;2.77;;;1.80;;
13720;SDS011;6932;51.438;5.470;2023-07-13T14:34:12;2.73;;;1.60;;
13720;SDS011;6932;51.438;5.470;2023-07-13T14:36:40;2.70;;;1.70;;
13720;SDS011;6932;51.438;5.470;2023-07-13T14:39:23;7.10;;;1.87;;
13720;SDS011;6932;51.438;5.470;2023-07-13T14:41:50;2.33;;;1.53;;
13720;SDS011;6932;51.438;5.470;2023-07-13T14:44:27;1.97;;;1.67;;
13720;SDS011;6932;51.438;5.470;2023-07-13T14:46:55;2.33;;;1.60;;
13720;SDS011;6932;51.438;5.470;2023-07-13T14:49:45;1.83;;;1.37;;
13720;SDS011;6932;51.438;5.470;2023-07-13T14:52:14;3.07;;;1.40;;
13720;SDS011;6932;51.438;5.470;2023-07-13T14:54:46;2.17;;;1.50;;
13720;SDS011;6932;51.438;5.470;2023-07-13T14:57:14;1.87;;;1.40;;
13720;SDS011;6932;51.438;5.470;2023-07-13T14:59:46;1.60;;;1.40;;
13720;SDS011;6932;51.438;5.470;2023-07-13T15:02:29;3.00;;;1.50;;
13720;SDS011;6932;51.438;5.470;2023-07-13T15:04:59;1.70;;;1.30;;
13720;SDS011;6932;51.438;5.470;2023-07-13T15:07:26;2.53;;;1.40;;
13720;SDS011;6932;51.438;5.470;2023-07-13T15:09:52;3.27;;;1.40;;
13720;SDS011;6932;51.438;5.470;2023-07-13T15:12:18;2.63;;;1.50;;
13720;SDS011;6932;51.438;5.470;2023-07-13T15:14:44;2.07;;;1.37;;
13720;SDS011;6932;51.438;5.470;2023-07-13T15:17:18;4.87;;;1.50;;
13720;SDS011;6932;51.438;5.470;2023-07-13T15:20:06;2.93;;;1.33;;
13720;SDS011;6932;51.438;5.470;2023-07-13T15:22:52;2.23;;;1.50;;
13720;SDS011;6932;51.438;5.470;2023-07-13T15:25:20;2.50;;;1.43;;
13720;SDS011;6932;51.438;5.470;2023-07-13T15:27:49;3.37;;;1.43;;
13720;SDS011;6932;51.438;5.470;2023-07-13T15:30:20;3.40;;;1.70;;
13720;SDS011;6932;51.438;5.470;2023-07-13T15:32:46;2.10;;;1.50;;
13720;SDS011;6932;51.438;5.470;2023-07-13T15:35:14;1.50;;;1.40;;
13720;SDS011;6932;51.438;5.470;2023-07-13T15:37:45;3.27;;;1.40;;
13720;SDS011;6932;51.438;5.470;2023-07-13T15:40:12;4.77;;;2.10;;
13720;SDS011;6932;51.438;5.470;2023-07-13T15:42:40;6.47;;;2.20;;
13720;SDS011;6932;51.438;5.470;2023-07-13T15:45:14;4.43;;;1.97;;
13720;SDS011;6932;51.438;5.470;2023-07-13T15:47:44;3.17;;;2.10;;
13720;SDS011;6932;51.438;5.470;2023-07-13T15:50:14;4.63;;;2.40;;
13720;SDS011;6932;51.438;5.470;2023-07-13T15:52:45;3.43;;;2.10;;
13720;SDS011;6932;51.438;5.470;2023-07-13T15:55:16;3.13;;;1.97;;
13720;SDS011;6932;51.438;5.470;2023-07-13T15:57:44;3.00;;;1.90;;